sensor_id;sensor_type;location;lat;lon;timestamp;P1;durP1;ratioP1;P2;durP2;ratioP2
23745;SDS011;12053;48.878;9.632;2023-07-28T00:01:09;4.47;;;3.22;;
23745;SDS011;12053;48.878;9.632;2023-07-28T00:03:36;4.55;;;3.20;;
23745;SDS011;12053;48.878;9.632;2023-07-28T00:06:04;3.40;;;3.05;;
23745;SDS011;12053;48.878;9.632;2023-07-28T00:08:31;4.32;;;3.03;;
23745;SDS011;12053;48.878;9.632;2023-07-28T00:10:58;3.28;;;2.92;;
23745;SDS011;12053;48.878;9.632;2023-07-28T00:13:25;3.30;;;3.00;;
23745;SDS011;12053;48.878;9.632;2023-07-28T00:15:52;4.97;;;3.40;;
23745;SDS011;12053;48.878;9.632;2023-07-28T00:18:19;4.82;;;2.78;;
23745;SDS011;12053;48.878;9.632;2023-07-28T00:20:47;4.38;;;3.10;;
23745;SDS011;12053;48.878;9.632;2023-07-28T00:23:14;4.65;;;3.42;;
23745;SDS011;12053;48.878;9.632;2023-07-28T00:25:42;3.03;;;2.72;;
23745;SDS011;12053;48.878;9.632;2023-07-28T00:28:09;3.47;;;3.17;;
23745;SDS011;12053;48.878;9.632;2023-07-28T00:30:36;4.70;;;3.30;;
23745;SDS011;12053;48.878;9.632;2023-07-28T00:33:04;3.08;;;2.78;;
23745;SDS011;12053;48.878;9.632;2023-07-28T00:35:31;3.80;;;2.90;;
23745;SDS011;12053;48.878;9.632;2023-07-28T00:37:59;3.50;;;2.53;;
23745;SDS011;12053;48.878;9.632;2023-07-28T00:40:26;4.90;;;3.03;;
23745;SDS011;12053;48.878;9.632;2023-07-28T00:42:53;3.60;;;2.72;;
23745;SDS011;12053;48.878;9.632;2023-07-28T00:45:20;4.15;;;2.78;;
23745;SDS011;12053;48.878;9.632;2023-07-28T00:47:48;3.72;;;2.90;;
23745;SDS011;12053;48.878;9.632;2023-07-28T00:50:15;3.42;;;3.13;;
23745;SDS011;12053;48.878;9.632;2023-07-28T00:52:43;3.42;;;3.00;;
23745;SDS011;12053;48.878;9.632;2023-07-28T00:55:10;3.38;;;2.90;;
23745;SDS011;12053;48.878;9.632;2023-07-28T00:57:37;3.03;;;2.67;;
23745;SDS011;12053;48.878;9.632;2023-07-28T01:00:05;3.38;;;2.78;;
23745;SDS011;12053;48.878;9.632;2023-07-28T01:02:33;3.00;;;2.70;;
23745;SDS011;12053;48.878;9.632;2023-07-28T01:05:00;6.85;;;3.17;;
23745;SDS011;12053;48.878;9.632;2023-07-28T01:07:45;3.25;;;2.78;;
23745;SDS011;12053;48.878;9.632;2023-07-28T01:10:16;2.92;;;2.72;;
23745;SDS011;12053;48.878;9.632;2023-07-28T01:12:44;4.70;;;2.63;;
23745;SDS011;12053;48.878;9.632;2023-07-28T01:15:11;3.13;;;2.83;;
23745;SDS011;12053;48.878;9.632;2023-07-28T01:17:41;3.35;;;2.78;;
23745;SDS011;12053;48.878;9.632;2023-07-28T01:20:09;4.25;;;2.92;;
23745;SDS011;12053;48.878;9.632;2023-07-28T01:27:49;8.23;;;2.95;;
23745;SDS011;12053;48.878;9.632;2023-07-28T01:30:17;5.45;;;2.95;;
23745;SDS011;12053;48.878;9.632;2023-07-28T01:32:45;6.28;;;2.58;;
23745;SDS011;12053;48.878;9.632;2023-07-28T01:35:13;2.97;;;2.50;;
23745;SDS011;12053;48.878;9.632;2023-07-28T01:37:40;5.13;;;2.80;;
23745;SDS011;12053;48.878;9.632;2023-07-28T01:40:08;2.90;;;2.60;;
23745;SDS011;12053;48.878;9.632;2023-07-28T01:42:35;4.28;;;2.70;;
23745;SDS011;12053;48.878;9.632;2023-07-28T01:45:02;3.10;;;2.80;;
23745;SDS011;12053;48.878;9.632;2023-07-28T01:47:29;6.25;;;2.85;;
23745;SDS011;12053;48.878;9.632;2023-07-28T01:49:57;5.03;;;2.78;;
23745;SDS011;12053;48.878;9.632;2023-07-28T01:52:24;2.60;;;2.40;;
23745;SDS011;12053;48.878;9.632;2023-07-28T01:54:51;4.22;;;2.78;;
23745;SDS011;12053;48.878;9.632;2023-07-28T01:57:18;3.20;;;2.90;;
23745;SDS011;12053;48.878;9.632;2023-07-28T01:59:45;3.60;;;2.90;;
23745;SDS011;12053;48.878;9.632;2023-07-28T02:02:12;4.47;;;2.67;;
23745;SDS011;12053;48.878;9.632;2023-07-28T02:04:40;4.30;;;2.90;;
23745;SDS011;12053;48.878;9.632;2023-07-28T02:07:07;2.53;;;2.33;;
23745;SDS011;12053;48.878;9.632;2023-07-28T02:09:34;4.70;;;2.97;;
23745;SDS011;12053;48.878;9.632;2023-07-28T02:12:01;3.20;;;2.90;;
23745;SDS011;12053;48.878;9.632;2023-07-28T02:14:28;7.95;;;3.05;;
23745;SDS011;12053;48.878;9.632;2023-07-28T02:16:55;2.60;;;2.40;;
23745;SDS011;12053;48.878;9.632;2023-07-28T02:19:23;4.88;;;2.83;;
23745;SDS011;12053;48.878;9.632;2023-07-28T02:21:50;2.90;;;2.63;;
23745;SDS011;12053;48.878;9.632;2023-07-28T02:24:18;2.63;;;2.42;;
23745;SDS011;12053;48.878;9.632;2023-07-28T02:26:45;5.00;;;2.55;;
23745;SDS011;12053;48.878;9.632;2023-07-28T02:29:12;2.85;;;2.38;;
23745;SDS011;12053;48.878;9.632;2023-07-28T02:31:39;4.80;;;2.78;;
23745;SDS011;12053;48.878;9.632;2023-07-28T02:34:07;3.20;;;2.60;;
23745;SDS011;12053;48.878;9.632;2023-07-28T02:36:34;3.17;;;2.70;;
23745;SDS011;12053;48.878;9.632;2023-07-28T02:39:01;2.83;;;2.60;;
23745;SDS011;12053;48.878;9.632;2023-07-28T02:41:28;2.78;;;2.55;;
23745;SDS011;12053;48.878;9.632;2023-07-28T02:43:56;2.72;;;2.53;;
23745;SDS011;12053;48.878;9.632;2023-07-28T02:46:23;4.68;;;2.97;;
23745;SDS011;12053;48.878;9.632;2023-07-28T02:48:51;4.32;;;2.60;;
23745;SDS011;12053;48.878;9.632;2023-07-28T02:51:19;4.88;;;2.78;;
23745;SDS011;12053;48.878;9.632;2023-07-28T02:53:46;3.08;;;2.83;;
23745;SDS011;12053;48.878;9.632;2023-07-28T02:56:13;2.47;;;2.28;;
23745;SDS011;12053;48.878;9.632;2023-07-28T02:58:40;3.88;;;2.95;;
23745;SDS011;12053;48.878;9.632;2023-07-28T03:01:07;4.00;;;3.17;;
23745;SDS011;12053;48.878;9.632;2023-07-28T03:03:34;2.65;;;2.30;;
23745;SDS011;12053;48.878;9.632;2023-07-28T03:06:02;3.60;;;2.95;;
23745;SDS011;12053;48.878;9.632;2023-07-28T03:08:29;4.63;;;2.85;;
23745;SDS011;12053;48.878;9.632;2023-07-28T03:10:57;3.00;;;2.78;;
23745;SDS011;12053;48.878;9.632;2023-07-28T03:13:24;3.70;;;2.88;;
23745;SDS011;12053;48.878;9.632;2023-07-28T03:15:51;2.95;;;2.75;;
23745;SDS011;12053;48.878;9.632;2023-07-28T03:18:18;5.03;;;2.78;;
23745;SDS011;12053;48.878;9.632;2023-07-28T03:20:45;2.92;;;2.72;;
23745;SDS011;12053;48.878;9.632;2023-07-28T03:23:13;3.05;;;2.67;;
23745;SDS011;12053;48.878;9.632;2023-07-28T03:25:40;3.15;;;2.85;;
23745;SDS011;12053;48.878;9.632;2023-07-28T03:28:07;3.50;;;2.80;;
23745;SDS011;12053;48.878;9.632;2023-07-28T03:30:35;3.28;;;2.90;;
23745;SDS011;12053;48.878;9.632;2023-07-28T03:33:02;7.40;;;3.30;;
23745;SDS011;12053;48.878;9.632;2023-07-28T03:35:29;4.13;;;3.50;;
23745;SDS011;12053;48.878;9.632;2023-07-28T03:37:56;4.90;;;3.60;;
23745;SDS011;12053;48.878;9.632;2023-07-28T03:40:24;9.65;;;5.57;;
23745;SDS011;12053;48.878;9.632;2023-07-28T03:42:51;17.77;;;10.38;;
23745;SDS011;12053;48.878;9.632;2023-07-28T03:45:18;10.20;;;3.72;;
23745;SDS011;12053;48.878;9.632;2023-07-28T03:47:45;5.05;;;3.03;;
23745;SDS011;12053;48.878;9.632;2023-07-28T03:50:13;2.70;;;2.50;;
23745;SDS011;12053;48.878;9.632;2023-07-28T03:52:40;6.93;;;2.72;;
23745;SDS011;12053;48.878;9.632;2023-07-28T03:55:07;4.15;;;3.00;;
23745;SDS011;12053;48.878;9.632;2023-07-28T03:57:34;5.47;;;3.25;;
23745;SDS011;12053;48.878;9.632;2023-07-28T04:00:02;3.55;;;3.00;;
23745;SDS011;12053;48.878;9.632;2023-07-28T04:02:29;4.60;;;3.17;;
23745;SDS011;12053;48.878;9.632;2023-07-28T04:04:58;3.40;;;3.10;;
23745;SDS011;12053;48.878;9.632;2023-07-28T04:07:25;5.20;;;3.60;;
23745;SDS011;12053;48.878;9.632;2023-07-28T04:09:52;3.30;;;3.03;;
23745;SDS011;12053;48.878;9.632;2023-07-28T04:12:19;5.20;;;3.28;;
23745;SDS011;12053;48.878;9.632;2023-07-28T04:14:46;3.97;;;3.42;;
23745;SDS011;12053;48.878;9.632;2023-07-28T04:17:13;3.65;;;3.35;;
23745;SDS011;12053;48.878;9.632;2023-07-28T04:19:41;4.05;;;3.30;;
23745;SDS011;12053;48.878;9.632;2023-07-28T04:22:08;5.47;;;3.60;;
23745;SDS011;12053;48.878;9.632;2023-07-28T04:24:35;4.50;;;3.50;;
23745;SDS011;12053;48.878;9.632;2023-07-28T04:27:03;4.35;;;3.70;;
23745;SDS011;12053;48.878;9.632;2023-07-28T04:29:31;5.55;;;3.30;;
23745;SDS011;12053;48.878;9.632;2023-07-28T04:31:58;4.40;;;3.58;;
23745;SDS011;12053;48.878;9.632;2023-07-28T04:34:25;4.80;;;3.83;;
23745;SDS011;12053;48.878;9.632;2023-07-28T04:36:52;5.25;;;3.92;;
23745;SDS011;12053;48.878;9.632;2023-07-28T04:39:20;5.68;;;4.20;;
23745;SDS011;12053;48.878;9.632;2023-07-28T04:41:48;7.93;;;4.03;;
23745;SDS011;12053;48.878;9.632;2023-07-28T04:44:15;5.78;;;3.85;;
23745;SDS011;12053;48.878;9.632;2023-07-28T04:46:42;5.28;;;3.70;;
23745;SDS011;12053;48.878;9.632;2023-07-28T04:49:09;4.63;;;3.90;;
23745;SDS011;12053;48.878;9.632;2023-07-28T04:51:36;5.72;;;4.45;;
23745;SDS011;12053;48.878;9.632;2023-07-28T04:54:03;3.95;;;3.60;;
23745;SDS011;12053;48.878;9.632;2023-07-28T04:56:30;4.93;;;3.85;;
23745;SDS011;12053;48.878;9.632;2023-07-28T04:58:58;5.70;;;3.97;;
23745;SDS011;12053;48.878;9.632;2023-07-28T05:01:26;4.50;;;4.05;;
23745;SDS011;12053;48.878;9.632;2023-07-28T05:03:53;5.88;;;4.30;;
23745;SDS011;12053;48.878;9.632;2023-07-28T05:06:20;5.30;;;4.22;;
23745;SDS011;12053;48.878;9.632;2023-07-28T05:08:47;5.22;;;4.53;;
23745;SDS011;12053;48.878;9.632;2023-07-28T05:11:15;4.60;;;4.20;;
23745;SDS011;12053;48.878;9.632;2023-07-28T05:13:42;5.80;;;4.70;;
23745;SDS011;12053;48.878;9.632;2023-07-28T05:16:10;5.78;;;4.30;;
23745;SDS011;12053;48.878;9.632;2023-07-28T05:18:37;5.32;;;4.60;;
23745;SDS011;12053;48.878;9.632;2023-07-28T05:21:04;5.70;;;5.00;;
23745;SDS011;12053;48.878;9.632;2023-07-28T05:23:31;6.72;;;4.65;;
23745;SDS011;12053;48.878;9.632;2023-07-28T05:25:59;7.50;;;5.47;;
23745;SDS011;12053;48.878;9.632;2023-07-28T05:28:26;6.00;;;5.05;;
23745;SDS011;12053;48.878;9.632;2023-07-28T05:30:53;5.55;;;4.63;;
23745;SDS011;12053;48.878;9.632;2023-07-28T05:33:20;6.68;;;5.05;;
23745;SDS011;12053;48.878;9.632;2023-07-28T05:35:47;6.00;;;4.90;;
23745;SDS011;12053;48.878;9.632;2023-07-28T05:38:14;8.65;;;5.10;;
23745;SDS011;12053;48.878;9.632;2023-07-28T05:40:42;8.85;;;5.10;;
23745;SDS011;12053;48.878;9.632;2023-07-28T05:43:09;7.75;;;5.05;;
23745;SDS011;12053;48.878;9.632;2023-07-28T05:45:36;5.80;;;5.20;;
23745;SDS011;12053;48.878;9.632;2023-07-28T05:48:03;6.82;;;5.38;;
23745;SDS011;12053;48.878;9.632;2023-07-28T05:50:30;8.65;;;5.28;;
23745;SDS011;12053;48.878;9.632;2023-07-28T05:52:58;6.82;;;5.20;;
23745;SDS011;12053;48.878;9.632;2023-07-28T05:55:25;7.63;;;5.78;;
23745;SDS011;12053;48.878;9.632;2023-07-28T05:57:56;7.75;;;6.18;;
23745;SDS011;12053;48.878;9.632;2023-07-28T06:00:23;7.63;;;6.18;;
23745;SDS011;12053;48.878;9.632;2023-07-28T06:02:50;9.75;;;6.18;;
23745;SDS011;12053;48.878;9.632;2023-07-28T06:05:17;8.05;;;5.18;;
23745;SDS011;12053;48.878;9.632;2023-07-28T06:07:44;7.20;;;6.00;;
23745;SDS011;12053;48.878;9.632;2023-07-28T06:10:11;7.53;;;5.40;;
23745;SDS011;12053;48.878;9.632;2023-07-28T06:12:39;5.32;;;4.82;;
23745;SDS011;12053;48.878;9.632;2023-07-28T06:15:06;8.73;;;5.28;;
23745;SDS011;12053;48.878;9.632;2023-07-28T06:17:33;5.32;;;4.38;;
23745;SDS011;12053;48.878;9.632;2023-07-28T06:20:01;5.13;;;4.53;;
23745;SDS011;12053;48.878;9.632;2023-07-28T06:22:28;6.70;;;5.20;;
23745;SDS011;12053;48.878;9.632;2023-07-28T06:24:55;8.32;;;5.05;;
23745;SDS011;12053;48.878;9.632;2023-07-28T06:27:22;5.85;;;4.68;;
23745;SDS011;12053;48.878;9.632;2023-07-28T06:29:49;5.43;;;4.88;;
23745;SDS011;12053;48.878;9.632;2023-07-28T06:32:16;5.68;;;4.85;;
23745;SDS011;12053;48.878;9.632;2023-07-28T06:34:44;5.88;;;5.05;;
23745;SDS011;12053;48.878;9.632;2023-07-28T06:37:11;6.32;;;5.40;;
23745;SDS011;12053;48.878;9.632;2023-07-28T06:39:38;7.20;;;5.32;;
23745;SDS011;12053;48.878;9.632;2023-07-28T06:42:05;7.57;;;5.50;;
23745;SDS011;12053;48.878;9.632;2023-07-28T06:44:33;5.32;;;4.72;;
23745;SDS011;12053;48.878;9.632;2023-07-28T06:47:00;6.50;;;5.50;;
23745;SDS011;12053;48.878;9.632;2023-07-28T06:49:27;6.57;;;5.50;;
23745;SDS011;12053;48.878;9.632;2023-07-28T06:51:54;6.57;;;5.50;;
23745;SDS011;12053;48.878;9.632;2023-07-28T06:54:21;6.68;;;5.75;;
23745;SDS011;12053;48.878;9.632;2023-07-28T06:56:48;6.63;;;5.45;;
23745;SDS011;12053;48.878;9.632;2023-07-28T06:59:15;6.25;;;5.38;;
23745;SDS011;12053;48.878;9.632;2023-07-28T07:01:47;6.60;;;5.57;;
23745;SDS011;12053;48.878;9.632;2023-07-28T07:04:15;8.10;;;5.60;;
23745;SDS011;12053;48.878;9.632;2023-07-28T07:06:42;5.95;;;5.35;;
23745;SDS011;12053;48.878;9.632;2023-07-28T07:09:10;7.05;;;5.72;;
23745;SDS011;12053;48.878;9.632;2023-07-28T07:11:40;7.57;;;5.93;;
23745;SDS011;12053;48.878;9.632;2023-07-28T07:14:07;7.60;;;6.03;;
23745;SDS011;12053;48.878;9.632;2023-07-28T07:16:35;9.15;;;6.43;;
23745;SDS011;12053;48.878;9.632;2023-07-28T07:19:02;7.70;;;5.90;;
23745;SDS011;12053;48.878;9.632;2023-07-28T07:21:30;7.13;;;5.70;;
23745;SDS011;12053;48.878;9.632;2023-07-28T07:23:57;6.05;;;5.45;;
23745;SDS011;12053;48.878;9.632;2023-07-28T07:26:24;8.13;;;5.18;;
23745;SDS011;12053;48.878;9.632;2023-07-28T07:28:52;6.07;;;4.88;;
23745;SDS011;12053;48.878;9.632;2023-07-28T07:31:19;5.97;;;5.15;;
23745;SDS011;12053;48.878;9.632;2023-07-28T07:33:47;6.18;;;5.57;;
23745;SDS011;12053;48.878;9.632;2023-07-28T07:36:14;5.55;;;4.63;;
23745;SDS011;12053;48.878;9.632;2023-07-28T07:38:42;4.82;;;4.35;;
23745;SDS011;12053;48.878;9.632;2023-07-28T07:41:13;4.90;;;4.50;;
23745;SDS011;12053;48.878;9.632;2023-07-28T07:43:45;5.15;;;4.65;;
23745;SDS011;12053;48.878;9.632;2023-07-28T07:46:13;6.30;;;4.88;;
23745;SDS011;12053;48.878;9.632;2023-07-28T07:48:41;5.43;;;4.80;;
23745;SDS011;12053;48.878;9.632;2023-07-28T07:51:08;5.68;;;4.57;;
23745;SDS011;12053;48.878;9.632;2023-07-28T07:53:35;5.13;;;4.65;;
23745;SDS011;12053;48.878;9.632;2023-07-28T07:56:03;6.32;;;4.63;;
23745;SDS011;12053;48.878;9.632;2023-07-28T07:58:30;4.57;;;4.15;;
23745;SDS011;12053;48.878;9.632;2023-07-28T08:00:57;4.80;;;4.28;;
23745;SDS011;12053;48.878;9.632;2023-07-28T08:03:25;7.03;;;4.85;;
23745;SDS011;12053;48.878;9.632;2023-07-28T08:05:53;4.97;;;4.57;;
23745;SDS011;12053;48.878;9.632;2023-07-28T08:08:20;4.88;;;4.25;;
23745;SDS011;12053;48.878;9.632;2023-07-28T08:10:48;4.88;;;4.47;;
23745;SDS011;12053;48.878;9.632;2023-07-28T08:13:15;4.57;;;4.15;;
23745;SDS011;12053;48.878;9.632;2023-07-28T08:15:43;4.40;;;4.00;;
23745;SDS011;12053;48.878;9.632;2023-07-28T08:18:11;4.95;;;4.47;;
23745;SDS011;12053;48.878;9.632;2023-07-28T08:20:38;4.88;;;4.43;;
23745;SDS011;12053;48.878;9.632;2023-07-28T08:23:06;5.05;;;4.40;;
23745;SDS011;12053;48.878;9.632;2023-07-28T08:25:34;4.90;;;4.40;;
23745;SDS011;12053;48.878;9.632;2023-07-28T08:28:01;5.20;;;4.20;;
23745;SDS011;12053;48.878;9.632;2023-07-28T08:30:28;5.88;;;4.20;;
23745;SDS011;12053;48.878;9.632;2023-07-28T08:32:56;5.75;;;5.00;;
23745;SDS011;12053;48.878;9.632;2023-07-28T08:35:23;5.30;;;4.80;;
23745;SDS011;12053;48.878;9.632;2023-07-28T08:37:50;5.45;;;4.95;;
23745;SDS011;12053;48.878;9.632;2023-07-28T08:40:17;5.55;;;5.05;;
23745;SDS011;12053;48.878;9.632;2023-07-28T08:42:45;5.15;;;4.65;;
23745;SDS011;12053;48.878;9.632;2023-07-28T08:45:13;7.07;;;5.60;;
23745;SDS011;12053;48.878;9.632;2023-07-28T08:47:40;6.07;;;5.43;;
23745;SDS011;12053;48.878;9.632;2023-07-28T08:50:07;6.40;;;4.90;;
23745;SDS011;12053;48.878;9.632;2023-07-28T08:52:35;6.30;;;5.70;;
23745;SDS011;12053;48.878;9.632;2023-07-28T08:55:02;5.55;;;5.05;;
23745;SDS011;12053;48.878;9.632;2023-07-28T08:57:29;6.63;;;5.93;;
23745;SDS011;12053;48.878;9.632;2023-07-28T08:59:56;7.03;;;5.57;;
23745;SDS011;12053;48.878;9.632;2023-07-28T09:02:23;6.93;;;5.40;;
23745;SDS011;12053;48.878;9.632;2023-07-28T09:04:51;6.22;;;5.35;;
23745;SDS011;12053;48.878;9.632;2023-07-28T09:07:18;6.43;;;5.45;;
23745;SDS011;12053;48.878;9.632;2023-07-28T09:09:45;5.75;;;5.22;;
23745;SDS011;12053;48.878;9.632;2023-07-28T09:12:13;7.00;;;5.18;;
23745;SDS011;12053;48.878;9.632;2023-07-28T09:14:40;8.43;;;6.07;;
23745;SDS011;12053;48.878;9.632;2023-07-28T09:17:11;6.82;;;6.13;;
23745;SDS011;12053;48.878;9.632;2023-07-28T09:19:52;6.57;;;5.97;;
23745;SDS011;12053;48.878;9.632;2023-07-28T09:22:19;7.68;;;6.05;;
23745;SDS011;12053;48.878;9.632;2023-07-28T09:24:47;6.65;;;5.95;;
23745;SDS011;12053;48.878;9.632;2023-07-28T09:27:27;6.35;;;5.75;;
23745;SDS011;12053;48.878;9.632;2023-07-28T09:29:55;8.25;;;6.70;;
23745;SDS011;12053;48.878;9.632;2023-07-28T09:32:26;6.50;;;5.90;;
23745;SDS011;12053;48.878;9.632;2023-07-28T09:35:05;7.07;;;6.35;;
23745;SDS011;12053;48.878;9.632;2023-07-28T09:37:33;8.13;;;6.10;;
23745;SDS011;12053;48.878;9.632;2023-07-28T09:40:01;6.88;;;5.45;;
23745;SDS011;12053;48.878;9.632;2023-07-28T09:42:31;6.25;;;4.90;;
23745;SDS011;12053;48.878;9.632;2023-07-28T09:44:58;5.55;;;5.05;;
23745;SDS011;12053;48.878;9.632;2023-07-28T09:47:26;5.13;;;4.63;;
23745;SDS011;12053;48.878;9.632;2023-07-28T09:49:54;5.03;;;3.70;;
23745;SDS011;12053;48.878;9.632;2023-07-28T09:52:22;4.28;;;3.53;;
23745;SDS011;12053;48.878;9.632;2023-07-28T09:54:51;3.40;;;3.10;;
23745;SDS011;12053;48.878;9.632;2023-07-28T09:57:20;3.92;;;3.30;;
23745;SDS011;12053;48.878;9.632;2023-07-28T09:59:48;3.75;;;2.85;;
23745;SDS011;12053;48.878;9.632;2023-07-28T10:02:16;3.53;;;3.10;;
23745;SDS011;12053;48.878;9.632;2023-07-28T10:04:43;4.05;;;3.10;;
23745;SDS011;12053;48.878;9.632;2023-07-28T10:07:11;3.13;;;2.83;;
23745;SDS011;12053;48.878;9.632;2023-07-28T10:09:39;3.67;;;2.63;;
23745;SDS011;12053;48.878;9.632;2023-07-28T10:12:06;3.58;;;2.90;;
23745;SDS011;12053;48.878;9.632;2023-07-28T10:14:34;7.13;;;3.30;;
23745;SDS011;12053;48.878;9.632;2023-07-28T10:17:04;6.00;;;3.10;;
23745;SDS011;12053;48.878;9.632;2023-07-28T10:19:35;3.67;;;2.42;;
23745;SDS011;12053;48.878;9.632;2023-07-28T10:22:07;4.95;;;2.50;;
23745;SDS011;12053;48.878;9.632;2023-07-28T10:27:28;4.05;;;2.65;;
23745;SDS011;12053;48.878;9.632;2023-07-28T10:29:56;2.60;;;2.40;;
23745;SDS011;12053;48.878;9.632;2023-07-28T10:32:26;2.88;;;2.20;;
23745;SDS011;12053;48.878;9.632;2023-07-28T10:35:00;3.10;;;2.10;;
23745;SDS011;12053;48.878;9.632;2023-07-28T10:37:27;2.78;;;2.15;;
23745;SDS011;12053;48.878;9.632;2023-07-28T10:42:40;5.25;;;2.50;;
23745;SDS011;12053;48.878;9.632;2023-07-28T10:45:07;3.35;;;2.25;;
23745;SDS011;12053;48.878;9.632;2023-07-28T10:47:35;3.00;;;2.80;;
23745;SDS011;12053;48.878;9.632;2023-07-28T10:50:03;3.00;;;2.65;;
23745;SDS011;12053;48.878;9.632;2023-07-28T10:52:30;2.95;;;2.53;;
23745;SDS011;12053;48.878;9.632;2023-07-28T10:54:57;3.13;;;2.80;;
23745;SDS011;12053;48.878;9.632;2023-07-28T10:57:25;4.15;;;2.88;;
23745;SDS011;12053;48.878;9.632;2023-07-28T10:59:52;3.85;;;2.80;;
23745;SDS011;12053;48.878;9.632;2023-07-28T11:02:19;3.10;;;2.78;;
23745;SDS011;12053;48.878;9.632;2023-07-28T11:04:47;5.18;;;2.95;;
23745;SDS011;12053;48.878;9.632;2023-07-28T11:07:14;2.92;;;2.53;;
23745;SDS011;12053;48.878;9.632;2023-07-28T11:09:41;3.60;;;2.63;;
23745;SDS011;12053;48.878;9.632;2023-07-28T11:12:09;4.30;;;2.70;;
23745;SDS011;12053;48.878;9.632;2023-07-28T11:14:37;3.17;;;2.45;;
23745;SDS011;12053;48.878;9.632;2023-07-28T11:17:05;4.90;;;2.40;;
23745;SDS011;12053;48.878;9.632;2023-07-28T11:19:33;2.85;;;2.40;;
23745;SDS011;12053;48.878;9.632;2023-07-28T11:22:00;3.38;;;2.38;;
23745;SDS011;12053;48.878;9.632;2023-07-28T11:24:27;3.25;;;2.00;;
23745;SDS011;12053;48.878;9.632;2023-07-28T11:26:54;3.38;;;2.78;;
23745;SDS011;12053;48.878;9.632;2023-07-28T11:29:25;2.88;;;2.35;;
23745;SDS011;12053;48.878;9.632;2023-07-28T11:31:53;4.35;;;2.72;;
23745;SDS011;12053;48.878;9.632;2023-07-28T11:34:20;2.30;;;2.10;;
23745;SDS011;12053;48.878;9.632;2023-07-28T11:36:48;2.92;;;2.30;;
23745;SDS011;12053;48.878;9.632;2023-07-28T11:39:15;2.50;;;2.20;;
23745;SDS011;12053;48.878;9.632;2023-07-28T11:41:43;3.45;;;2.03;;
23745;SDS011;12053;48.878;9.632;2023-07-28T11:44:10;2.58;;;2.17;;
23745;SDS011;12053;48.878;9.632;2023-07-28T11:46:38;2.97;;;2.03;;
23745;SDS011;12053;48.878;9.632;2023-07-28T11:49:10;3.60;;;1.98;;
23745;SDS011;12053;48.878;9.632;2023-07-28T11:51:41;2.30;;;2.10;;
23745;SDS011;12053;48.878;9.632;2023-07-28T11:54:10;2.70;;;2.50;;
23745;SDS011;12053;48.878;9.632;2023-07-28T11:56:43;3.83;;;2.45;;
23745;SDS011;12053;48.878;9.632;2023-07-28T11:59:11;2.50;;;2.30;;
23745;SDS011;12053;48.878;9.632;2023-07-28T12:01:54;2.63;;;2.42;;
23745;SDS011;12053;48.878;9.632;2023-07-28T12:07:08;2.78;;;2.40;;
23745;SDS011;12053;48.878;9.632;2023-07-28T12:10:02;3.15;;;1.92;;
23745;SDS011;12053;48.878;9.632;2023-07-28T12:12:30;2.45;;;2.08;;
23745;SDS011;12053;48.878;9.632;2023-07-28T12:15:17;2.72;;;1.67;;
23745;SDS011;12053;48.878;9.632;2023-07-28T12:18:03;1.90;;;1.70;;
23745;SDS011;12053;48.878;9.632;2023-07-28T12:20:34;1.65;;;1.55;;
23745;SDS011;12053;48.878;9.632;2023-07-28T12:23:05;1.80;;;1.70;;
23745;SDS011;12053;48.878;9.632;2023-07-28T12:25:36;4.05;;;1.83;;
23745;SDS011;12053;48.878;9.632;2023-07-28T12:28:04;5.25;;;1.67;;
23745;SDS011;12053;48.878;9.632;2023-07-28T12:30:43;2.10;;;1.90;;
23745;SDS011;12053;48.878;9.632;2023-07-28T12:33:11;3.80;;;1.58;;
23745;SDS011;12053;48.878;9.632;2023-07-28T12:35:41;1.70;;;1.60;;
23745;SDS011;12053;48.878;9.632;2023-07-28T12:38:11;1.60;;;1.50;;
23745;SDS011;12053;48.878;9.632;2023-07-28T12:40:41;2.58;;;1.50;;
23745;SDS011;12053;48.878;9.632;2023-07-28T12:43:11;3.05;;;1.40;;
23745;SDS011;12053;48.878;9.632;2023-07-28T12:45:58;2.72;;;1.80;;
23745;SDS011;12053;48.878;9.632;2023-07-28T12:48:28;1.63;;;1.52;;
23745;SDS011;12053;48.878;9.632;2023-07-28T12:50:55;4.40;;;1.60;;
23745;SDS011;12053;48.878;9.632;2023-07-28T12:53:25;2.53;;;1.75;;
23745;SDS011;12053;48.878;9.632;2023-07-28T12:55:52;3.25;;;1.70;;
23745;SDS011;12053;48.878;9.632;2023-07-28T12:58:24;1.77;;;1.67;;
23745;SDS011;12053;48.878;9.632;2023-07-28T13:00:54;2.72;;;1.60;;
23745;SDS011;12053;48.878;9.632;2023-07-28T13:03:26;3.35;;;1.92;;
23745;SDS011;12053;48.878;9.632;2023-07-28T13:05:54;2.22;;;1.70;;
23745;SDS011;12053;48.878;9.632;2023-07-28T13:08:21;1.70;;;1.60;;
23745;SDS011;12053;48.878;9.632;2023-07-28T13:10:51;3.03;;;1.95;;
23745;SDS011;12053;48.878;9.632;2023-07-28T13:13:21;2.13;;;1.80;;
23745;SDS011;12053;48.878;9.632;2023-07-28T13:15:48;2.53;;;1.80;;
23745;SDS011;12053;48.878;9.632;2023-07-28T13:18:15;2.20;;;2.00;;
23745;SDS011;12053;48.878;9.632;2023-07-28T13:20:43;2.10;;;1.90;;
23745;SDS011;12053;48.878;9.632;2023-07-28T13:23:10;2.15;;;1.60;;
23745;SDS011;12053;48.878;9.632;2023-07-28T13:25:37;2.25;;;1.80;;
23745;SDS011;12053;48.878;9.632;2023-07-28T13:28:04;1.88;;;1.65;;
23745;SDS011;12053;48.878;9.632;2023-07-28T13:30:35;3.50;;;1.83;;
23745;SDS011;12053;48.878;9.632;2023-07-28T13:33:03;2.47;;;1.95;;
23745;SDS011;12053;48.878;9.632;2023-07-28T13:35:31;4.07;;;2.22;;
23745;SDS011;12053;48.878;9.632;2023-07-28T13:37:58;2.35;;;2.08;;
23745;SDS011;12053;48.878;9.632;2023-07-28T13:40:26;3.95;;;1.95;;
23745;SDS011;12053;48.878;9.632;2023-07-28T13:42:54;2.22;;;1.88;;
23745;SDS011;12053;48.878;9.632;2023-07-28T13:45:21;4.72;;;2.05;;
23745;SDS011;12053;48.878;9.632;2023-07-28T13:47:48;2.00;;;1.90;;
23745;SDS011;12053;48.878;9.632;2023-07-28T13:50:15;2.58;;;1.90;;
23745;SDS011;12053;48.878;9.632;2023-07-28T13:52:43;2.40;;;2.20;;
23745;SDS011;12053;48.878;9.632;2023-07-28T13:55:15;2.70;;;2.50;;
23745;SDS011;12053;48.878;9.632;2023-07-28T13:57:44;2.90;;;2.20;;
23745;SDS011;12053;48.878;9.632;2023-07-28T14:00:11;2.83;;;2.38;;
23745;SDS011;12053;48.878;9.632;2023-07-28T14:02:39;2.15;;;2.00;;
23745;SDS011;12053;48.878;9.632;2023-07-28T14:05:07;2.53;;;1.67;;
23745;SDS011;12053;48.878;9.632;2023-07-28T14:07:34;2.15;;;1.95;;
23745;SDS011;12053;48.878;9.632;2023-07-28T14:10:02;2.35;;;2.15;;
23745;SDS011;12053;48.878;9.632;2023-07-28T14:12:32;3.88;;;2.20;;
23745;SDS011;12053;48.878;9.632;2023-07-28T14:14:59;3.65;;;2.25;;
23745;SDS011;12053;48.878;9.632;2023-07-28T14:17:27;7.90;;;3.15;;
23745;SDS011;12053;48.878;9.632;2023-07-28T14:19:54;4.28;;;2.53;;
23745;SDS011;12053;48.878;9.632;2023-07-28T14:22:21;5.70;;;3.03;;
23745;SDS011;12053;48.878;9.632;2023-07-28T14:24:48;8.48;;;3.78;;
23745;SDS011;12053;48.878;9.632;2023-07-28T14:27:15;4.95;;;3.42;;
23745;SDS011;12053;48.878;9.632;2023-07-28T14:29:42;5.28;;;3.03;;
23745;SDS011;12053;48.878;9.632;2023-07-28T14:32:09;5.15;;;3.53;;
23745;SDS011;12053;48.878;9.632;2023-07-28T14:34:37;26.40;;;3.95;;
23745;SDS011;12053;48.878;9.632;2023-07-28T14:37:04;5.07;;;3.67;;
23745;SDS011;12053;48.878;9.632;2023-07-28T14:39:32;4.50;;;3.67;;
23745;SDS011;12053;48.878;9.632;2023-07-28T14:41:59;4.20;;;3.80;;
23745;SDS011;12053;48.878;9.632;2023-07-28T14:44:26;4.88;;;3.53;;
23745;SDS011;12053;48.878;9.632;2023-07-28T14:46:53;5.45;;;3.50;;
23745;SDS011;12053;48.878;9.632;2023-07-28T14:49:21;6.97;;;3.20;;
23745;SDS011;12053;48.878;9.632;2023-07-28T14:51:48;5.38;;;3.08;;
23745;SDS011;12053;48.878;9.632;2023-07-28T14:54:15;4.15;;;3.45;;
23745;SDS011;12053;48.878;9.632;2023-07-28T14:56:42;5.35;;;3.78;;
23745;SDS011;12053;48.878;9.632;2023-07-28T14:59:09;4.50;;;3.13;;
23745;SDS011;12053;48.878;9.632;2023-07-28T15:01:36;3.78;;;3.00;;
23745;SDS011;12053;48.878;9.632;2023-07-28T15:04:04;5.00;;;2.97;;
23745;SDS011;12053;48.878;9.632;2023-07-28T15:06:32;7.93;;;3.13;;